< < Back
Terminal Aerodrome Forecast


Current Version              Previous Versions:   1  2  3  4  5  6  7  8  9  

Terminal Aerodrome Forecast

146
FTUS42 KGSP 290541
TAFHKY
TAF
KHKY 290541Z 2906/3006 00000KT P6SM FEW030
     FM290800 00000KT 4SM BR SCT030
      TEMPO 2910/2913 00000KT 1/2SM FG VV003
     FM291300 00000KT 6SM BR BKN016
     FM291900 20005KT P6SM BKN070 PROB30 2919/2923 4SM TSRA
      BKN040CB=



Latest METAR

843
SAUS70 KWBC 290700 RRC
MTRHKY
METAR KHKY 290653Z AUTO 00000KT 10SM FEW026 22/21 A3000 RMK AO2 SLP135
T02220206


USA.gov is the U.S. government's official web portal to all federal, state and local government web resources and services.